Terminal Aerodrome Forecast
Issued by NWS Twin Cities, MN

Home | Current Version | Previous Version | Graphics & Text | Print | Product List | Glossary On
Versions: 1 2 3 4 5 6 7 8 9 10 11 12 13 14 15 16 17 18 19 20
000
FTUS43 KMPX 261139
TAFEAU
TAF
KEAU 261139Z 2612/2712 VRB03KT 4SM BR SCT002 BKN100
      TEMPO 2612/2613 1SM BR BKN002
     FM261300 VRB04KT 4SM BR VCSH SCT008 OVC012
     FM261500 VRB04KT P6SM -SHRA SCT012 OVC050
     FM261800 24005KT 6SM -RA SCT012 OVC025
      TEMPO 2619/2623 3SM -TSRA BR OVC025CB
     FM270000 35004KT 5SM -RA BR OVC020
     FM270600 27007KT P6SM SCT020 BKN050=

USA.gov is the U.S. government's official web portal to all federal, state and local government web resources and services.